createdAt,value
2022-09-07T00:00:51.688Z,21.70
2022-09-07T00:05:54.650Z,21.60
2022-09-07T00:10:59.760Z,21.60
2022-09-07T00:16:07.718Z,21.50
2022-09-07T00:21:12.394Z,21.40
2022-09-07T00:26:17.812Z,21.30
2022-09-07T00:31:23.881Z,21.30
2022-09-07T00:36:27.384Z,21.20
2022-09-07T00:41:30.376Z,21.20
2022-09-07T00:46:36.468Z,21.20
2022-09-07T00:51:43.377Z,21.20
2022-09-07T00:56:48.263Z,21.30
2022-09-07T01:01:53.054Z,21.30
2022-09-07T01:06:57.171Z,21.30
2022-09-07T01:12:02.078Z,21.30
2022-09-07T01:17:11.407Z,21.20
2022-09-07T01:22:35.589Z,21.10
2022-09-07T01:28:10.761Z,21.00
2022-09-07T01:33:29.147Z,21.10
2022-09-07T01:38:38.648Z,21.10
2022-09-07T01:43:49.649Z,21.10
2022-09-07T01:48:55.341Z,21.10
2022-09-07T01:54:02.046Z,21.10
2022-09-07T01:59:09.886Z,21.10
2022-09-07T02:04:17.230Z,21.20
2022-09-07T02:09:26.085Z,21.20
2022-09-07T02:14:34.972Z,21.20
2022-09-07T02:19:43.377Z,21.20
2022-09-07T02:24:49.766Z,21.20
2022-09-07T02:29:54.222Z,21.20
2022-09-07T02:34:57.172Z,21.20
2022-09-07T02:40:00.904Z,21.20
2022-09-07T02:45:07.992Z,21.20
2022-09-07T02:50:29.927Z,21.10
2022-09-07T02:55:43.781Z,21.10
2022-09-07T03:00:54.298Z,21.10
2022-09-07T03:06:02.141Z,21.10
2022-09-07T03:11:06.110Z,21.20
2022-09-07T03:16:14.307Z,21.20
2022-09-07T03:21:17.361Z,21.20
2022-09-07T03:26:25.044Z,21.20
2022-09-07T03:31:29.306Z,21.10
2022-09-07T03:36:32.976Z,20.90
2022-09-07T03:41:35.923Z,20.70
2022-09-07T03:46:40.268Z,20.60
2022-09-07T03:51:43.240Z,20.50
2022-09-07T03:56:46.188Z,20.50
2022-09-07T04:01:50.544Z,20.50
2022-09-07T04:06:53.495Z,20.50
2022-09-07T04:11:56.552Z,20.50
2022-09-07T04:17:00.889Z,20.50
2022-09-07T04:22:03.916Z,20.50
2022-09-07T04:27:06.962Z,20.50
2022-09-07T04:32:15.563Z,20.50
2022-09-07T04:37:18.827Z,20.60
2022-09-07T04:42:22.016Z,20.60
2022-09-07T04:47:26.431Z,20.60
2022-09-07T04:52:29.445Z,20.50
2022-09-07T04:57:32.360Z,20.40
2022-09-07T05:02:37.911Z,20.40
2022-09-07T05:07:40.939Z,20.40
2022-09-07T05:12:43.858Z,20.40
2022-09-07T05:17:48.150Z,20.40
2022-09-07T05:22:59.406Z,20.40
2022-09-07T05:28:02.663Z,20.40
2022-09-07T05:33:08.137Z,20.50
2022-09-07T05:38:11.124Z,20.50
2022-09-07T05:43:14.060Z,20.50
2022-09-07T05:48:18.325Z,20.50
2022-09-07T05:53:22.115Z,20.50
2022-09-07T05:58:25.063Z,20.50
2022-09-07T06:03:30.078Z,20.50
2022-09-07T06:08:34.326Z,20.50
2022-09-07T06:13:38.204Z,20.50
2022-09-07T06:18:44.255Z,20.50
2022-09-07T06:23:48.553Z,20.60
2022-09-07T06:28:55.906Z,20.60
2022-09-07T06:34:02.016Z,20.70
2022-09-07T06:39:05.382Z,20.80
2022-09-07T06:44:08.453Z,20.80
2022-09-07T06:49:12.784Z,20.90
2022-09-07T06:59:39.700Z,21.30
2022-09-07T07:04:43.970Z,21.40
2022-09-07T07:09:46.880Z,21.60
2022-09-07T07:14:49.816Z,21.70
2022-09-07T07:19:54.088Z,21.90
2022-09-07T07:24:59.678Z,22.10
2022-09-07T07:30:02.646Z,22.40
2022-09-07T07:35:08.819Z,22.60
2022-09-07T07:50:46.396Z,23.40
2022-09-07T07:55:49.361Z,23.60
2022-09-07T08:00:56.313Z,23.80
2022-09-07T08:06:07.990Z,24.00
2022-09-07T08:11:12.625Z,24.20
2022-09-07T08:16:15.542Z,24.40
2022-09-07T08:21:19.871Z,24.60
2022-09-07T08:26:22.750Z,24.80
2022-09-07T08:31:25.726Z,24.90
2022-09-07T08:36:31.745Z,25.00
2022-09-07T08:41:55.159Z,25.00
2022-09-07T08:47:01.460Z,25.00
2022-09-07T08:52:11.887Z,25.00
2022-09-07T08:57:21.693Z,25.10
2022-09-07T09:02:27.992Z,25.10
2022-09-07T09:07:42.364Z,25.20
2022-09-07T09:13:11.194Z,25.30
2022-09-07T09:18:25.069Z,25.40
2022-09-07T09:23:35.432Z,25.40
2022-09-07T09:28:39.613Z,25.50
2022-09-07T09:33:42.658Z,25.60
2022-09-07T09:38:46.917Z,25.80
2022-09-07T09:43:55.050Z,25.90
2022-09-07T09:49:01.144Z,26.10
2022-09-07T09:54:20.457Z,26.30
2022-09-07T10:04:50.516Z,26.60
2022-09-07T10:09:56.239Z,26.80
2022-09-07T10:15:00.774Z,27.00
2022-09-07T10:20:36.795Z,27.10
2022-09-07T10:25:44.580Z,27.40
2022-09-07T10:31:00.149Z,27.60
2022-09-07T10:36:11.550Z,27.80
2022-09-07T10:41:18.978Z,27.90
2022-09-07T10:52:14.208Z,28.20
2022-09-07T10:57:35.276Z,28.40
2022-09-07T11:08:27.114Z,28.70
2022-09-07T11:13:50.224Z,28.90
2022-09-07T11:24:32.308Z,29.20
2022-09-07T11:29:44.619Z,29.40
2022-09-07T11:34:52.197Z,29.50
2022-09-07T11:40:00.226Z,29.60
2022-09-07T11:45:13.879Z,29.70
2022-09-07T11:50:18.966Z,29.90
2022-09-07T11:55:28.461Z,30.00
2022-09-07T12:00:45.425Z,30.10
2022-09-07T12:06:03.707Z,30.30
2022-09-07T12:11:36.572Z,30.40
2022-09-07T12:17:01.639Z,30.60
2022-09-07T12:22:05.402Z,30.70
2022-09-07T12:27:12.524Z,30.80
2022-09-07T12:32:57.055Z,30.80
2022-09-07T12:38:03.054Z,30.90
2022-09-07T12:43:35.726Z,30.90
2022-09-07T12:48:50.150Z,30.90
2022-09-07T12:54:05.525Z,30.90
2022-09-07T12:59:28.497Z,30.90
2022-09-07T13:04:46.234Z,31.10
2022-09-07T13:09:57.665Z,31.30
2022-09-07T13:15:01.586Z,31.30
2022-09-07T13:20:08.061Z,31.50
2022-09-07T13:25:47.640Z,31.30
2022-09-07T13:31:06.024Z,31.20
2022-09-07T13:36:21.846Z,31.00
2022-09-07T13:41:29.206Z,30.90
2022-09-07T13:46:41.920Z,30.80
2022-09-07T13:51:53.150Z,30.90
2022-09-07T13:57:04.241Z,30.90
2022-09-07T14:02:23.148Z,31.10
2022-09-07T14:07:28.029Z,31.30
2022-09-07T14:12:32.366Z,31.40
2022-09-07T14:17:35.500Z,31.50
2022-09-07T14:22:40.648Z,31.60
2022-09-07T14:27:48.228Z,31.50
2022-09-07T14:32:53.844Z,31.40
2022-09-07T14:38:06.857Z,31.30
2022-09-07T14:43:29.439Z,31.20
2022-09-07T14:48:42.657Z,31.10
2022-09-07T14:53:48.711Z,30.90
2022-09-07T14:58:53.797Z,30.80
2022-09-07T15:03:58.979Z,30.70
2022-09-07T15:09:02.178Z,30.50
2022-09-07T15:14:12.331Z,30.40
2022-09-07T15:19:31.412Z,30.20
2022-09-07T15:24:34.519Z,30.10
2022-09-07T15:29:39.867Z,30.00
2022-09-07T15:34:43.930Z,29.90
2022-09-07T15:39:47.062Z,29.80
2022-09-07T15:44:51.366Z,29.70
2022-09-07T15:49:54.991Z,29.70
2022-09-07T15:54:57.974Z,29.60
2022-09-07T16:00:02.430Z,29.60
2022-09-07T16:05:15.348Z,29.60
2022-09-07T16:10:18.548Z,29.60
2022-09-07T16:15:26.827Z,29.60
2022-09-07T16:20:33.102Z,29.70
2022-09-07T16:25:36.273Z,29.80
2022-09-07T16:30:41.656Z,29.80
2022-09-07T16:35:44.582Z,29.80
2022-09-07T16:40:47.603Z,29.70
2022-09-07T16:46:02.878Z,29.70
2022-09-07T16:51:06.703Z,29.60
2022-09-07T16:56:11.138Z,29.40
2022-09-07T17:01:18.157Z,29.40
2022-09-07T17:06:23.620Z,29.30
2022-09-07T17:11:28.215Z,29.20
2022-09-07T17:16:33.777Z,29.10
2022-09-07T17:21:38.876Z,29.00
2022-09-07T17:26:42.925Z,28.90
2022-09-07T17:37:10.331Z,28.60
2022-09-07T17:42:13.345Z,28.50
2022-09-07T17:47:17.636Z,28.40
2022-09-07T17:52:20.642Z,28.30
2022-09-07T17:57:23.603Z,28.20
2022-09-07T18:02:27.981Z,28.10
2022-09-07T18:07:32.762Z,28.00
2022-09-07T18:12:35.764Z,27.90
2022-09-07T18:17:40.016Z,27.70
2022-09-07T18:22:42.919Z,27.50
2022-09-07T18:29:02.701Z,27.30
2022-09-07T18:33:10.005Z,27.10
2022-09-07T18:38:12.979Z,27.00
2022-09-07T18:43:16.339Z,26.90
2022-09-07T18:48:20.864Z,26.80
2022-09-07T18:53:24.200Z,26.70
2022-09-07T18:58:27.112Z,26.60
2022-09-07T19:03:31.485Z,26.50
2022-09-07T19:08:36.326Z,26.40
2022-09-07T19:13:39.885Z,26.30
2022-09-07T19:18:48.426Z,26.20
2022-09-07T19:23:56.300Z,26.10
2022-09-07T19:29:01.285Z,25.90
2022-09-07T19:34:05.535Z,25.80
2022-09-07T19:39:08.413Z,25.70
2022-09-07T19:44:11.372Z,25.60
2022-09-07T19:49:15.656Z,25.50
2022-09-07T19:54:19.111Z,25.40
2022-09-07T19:59:22.143Z,25.30
2022-09-07T20:04:28.114Z,25.20
2022-09-07T20:09:31.101Z,25.10
2022-09-07T20:14:34.066Z,25.00
2022-09-07T20:19:38.315Z,24.90
2022-09-07T20:24:41.205Z,24.80
2022-09-07T20:29:44.085Z,24.60
2022-09-07T20:34:48.306Z,24.50
2022-09-07T20:39:51.216Z,24.40
2022-09-07T20:44:54.733Z,24.30
2022-09-07T20:49:59.008Z,24.10
2022-09-07T20:55:01.885Z,24.00
2022-09-07T21:00:05.807Z,23.80
2022-09-07T21:05:10.876Z,23.70
2022-09-07T21:10:14.411Z,23.60
2022-09-07T21:15:17.433Z,23.50
2022-09-07T21:20:22.770Z,23.40
2022-09-07T21:25:25.694Z,23.40
2022-09-07T21:30:28.566Z,23.20
2022-09-07T21:35:33.876Z,23.10
2022-09-07T21:40:41.304Z,22.90
2022-09-07T21:45:44.252Z,22.80
2022-09-07T21:50:48.473Z,22.60
2022-09-07T21:55:56.291Z,22.50
2022-09-07T22:01:00.629Z,22.40
2022-09-07T22:06:05.232Z,22.30
2022-09-07T22:11:09.989Z,22.30
2022-09-07T22:16:13.762Z,22.20
2022-09-07T22:21:19.750Z,22.10
2022-09-07T22:26:25.472Z,22.10
2022-09-07T22:31:30.083Z,22.10
2022-09-07T22:36:36.539Z,22.00
2022-09-07T22:41:40.858Z,22.00
2022-09-07T22:46:45.500Z,21.90
2022-09-07T22:51:49.813Z,21.80
2022-09-07T22:56:52.821Z,21.80
2022-09-07T23:01:55.855Z,21.70
2022-09-07T23:07:00.161Z,21.70
2022-09-07T23:12:04.058Z,21.70
2022-09-07T23:17:07.003Z,21.70
2022-09-07T23:22:11.253Z,21.70
2022-09-07T23:27:14.169Z,21.60
2022-09-07T23:32:17.156Z,21.60
2022-09-07T23:37:21.660Z,21.60
2022-09-07T23:42:24.828Z,21.50
2022-09-07T23:47:27.717Z,21.40
2022-09-07T23:52:32.459Z,21.30
2022-09-07T23:57:35.463Z,21.20
